Time;durP1;ratioP1;P1;durP2;ratioP2;P2;SDS_P1;SDS_P2;PMS_P1;PMS_P2;Temp;Humidity;BMP_temperature;BMP_pressure;BME280_temperature;BME280_humidity;BME280_pressure;Samples;Min_cycle;Max_cycle;Signal;HPM_P1;HPM_P2
2022/10/01 00:01:54;;;;;;;;;;;;;;;21.62;65.51;99079.06;7312233;19;129576;-39
2022/10/01 00:04:19;;;;;;;;;;;;;;;21.61;64.76;99074.81;7309802;19;129477;-39
2022/10/01 00:06:45;;;;;;;;;;;;;;;21.59;64.68;99076.75;7312626;19;129480;-39
2022/10/01 00:09:10;;;;;;;;;;;;;;;21.59;65.19;99076.75;7308929;19;130426;-39
2022/10/01 00:11:35;;;;;;;;;;;;;;;21.62;64.90;99077.28;7313313;19;130239;-38
2022/10/01 00:14:00;;;;;;;;;;;;;;;21.62;65.32;99072.06;7304693;19;130457;-39
2022/10/01 00:16:26;;;;;;;;;;;;;;;21.62;65.12;99077.28;7302694;19;131199;-39
2022/10/01 00:18:52;;;;;;;;;;;;;;;21.59;65.19;99080.22;7313460;19;131214;-39
2022/10/01 00:21:24;;;;;;;;;;;;;;;21.62;64.95;99074.66;7313366;19;128976;-37
2022/10/01 00:24:03;;;;;;;;;;;;;;;21.60;64.84;99068.75;7311751;19;129114;-41
2022/10/01 00:26:32;;;;;;;;;;;;;;;21.65;65.09;99076.97;7313498;19;130214;-40
2022/10/01 00:28:58;;;;;;;;;;;;;;;21.62;65.26;99074.66;7309847;19;133730;-38
2022/10/01 00:31:24;;;;;;;;;;;;;;;21.59;65.17;99074.97;7313446;19;130799;-38
2022/10/01 00:33:53;;;;;;;;;;;;;;;21.60;65.27;99074.00;7310151;19;129153;-40
2022/10/01 00:36:18;;;;;;;;;;;;;;;21.62;65.37;99066.81;7314260;19;129015;-39
2022/10/01 00:38:45;;;;;;;;;;;;;;;21.58;64.93;99065.50;7311127;19;129804;-40
2022/10/01 00:41:10;;;;;;;;;;;;;;;21.61;65.30;99075.66;7314003;19;129708;-40
2022/10/01 00:43:40;;;;;;;;;;;;;;;21.63;65.30;99070.25;7309957;19;129468;-39
2022/10/01 00:46:14;;;;;;;;;;;;;;;21.62;65.23;99071.22;7313033;19;128924;-40
2022/10/01 00:48:47;;;;;;;;;;;;;;;21.59;65.04;99067.13;7308878;19;129416;-41
2022/10/01 00:51:12;;;;;;;;;;;;;;;21.61;65.15;99067.81;7311783;19;129867;-40
2022/10/01 00:53:38;;;;;;;;;;;;;;;21.63;64.92;99067.66;7311154;19;129103;-39
2022/10/01 00:56:04;;;;;;;;;;;;;;;21.67;64.98;99059.34;7311984;19;130907;-40
2022/10/01 00:58:29;;;;;;;;;;;;;;;21.62;65.25;99060.75;7311988;19;129187;-39
2022/10/01 01:00:55;;;;;;;;;;;;;;;21.61;65.04;99064.34;7310074;19;130658;-38
2022/10/01 01:03:21;;;;;;;;;;;;;;;21.60;65.31;99058.28;7311061;19;130817;-40
2022/10/01 01:05:46;;;;;;;;;;;;;;;21.64;65.35;99054.41;7313023;19;130033;-36
2022/10/01 01:08:14;;;;;;;;;;;;;;;21.65;64.82;99060.47;7310005;19;130360;-41
2022/10/01 01:10:49;;;;;;;;;;;;;;;21.62;65.01;99056.34;7311582;19;129631;-38
2022/10/01 01:13:23;;;;;;;;;;;;;;;21.59;64.92;99051.44;7309655;19;129378;-40
2022/10/01 01:15:54;;;;;;;;;;;;;;;21.61;64.82;99059.94;7314639;19;131689;-40
2022/10/01 01:18:22;;;;;;;;;;;;;;;21.63;64.80;99058.00;7318039;19;129481;-40
2022/10/01 01:20:50;;;;;;;;;;;;;;;21.60;64.83;99045.22;7311388;19;128831;-37
2022/10/01 01:23:15;;;;;;;;;;;;;;;21.60;65.18;99037.38;7310079;19;129539;-37
2022/10/01 01:25:46;;;;;;;;;;;;;;;21.61;64.91;99038.19;7313281;19;130235;-39
2022/10/01 01:28:22;;;;;;;;;;;;;;;21.54;65.35;99022.28;7316974;19;129422;-40
2022/10/01 01:30:50;;;;;;;;;;;;;;;21.62;65.11;99029.38;7317708;19;129371;-38
2022/10/01 01:33:18;;;;;;;;;;;;;;;21.63;65.06;99036.25;7316389;19;129397;-39
2022/10/01 01:35:43;;;;;;;;;;;;;;;21.60;65.19;99031.34;7317872;19;130821;-40
2022/10/01 01:38:17;;;;;;;;;;;;;;;21.62;65.34;99024.13;7318155;19;130337;-38
2022/10/01 01:40:43;;;;;;;;;;;;;;;21.58;65.30;99018.41;7318398;19;130071;-39
2022/10/01 01:43:19;;;;;;;;;;;;;;;21.58;64.96;99018.41;7317532;19;129359;-39
2022/10/01 01:45:46;;;;;;;;;;;;;;;21.59;65.41;99012.19;7315905;19;129307;-37
2022/10/01 01:48:12;;;;;;;;;;;;;;;21.58;65.22;99007.13;7316789;19;129187;-39
2022/10/01 01:50:42;;;;;;;;;;;;;;;21.61;65.48;99006.81;7317131;19;130032;-39
2022/10/01 01:53:08;;;;;;;;;;;;;;;21.64;64.88;99003.88;7316836;19;129366;-40
2022/10/01 01:55:35;;;;;;;;;;;;;;;21.64;65.27;99011.72;7316683;19;129651;-39
2022/10/01 01:58:01;;;;;;;;;;;;;;;21.61;64.85;99010.25;7318501;19;131672;-39
2022/10/01 02:00:26;;;;;;;;;;;;;;;21.62;65.58;99005.81;7317609;19;130132;-39
2022/10/01 02:02:53;;;;;;;;;;;;;;;21.57;64.83;99018.53;7315181;19;129439;-40
2022/10/01 02:05:22;;;;;;;;;;;;;;;21.61;65.63;99010.25;7317312;19;130074;-40
2022/10/01 02:08:12;;;;;;;;;;;;;;;21.58;65.64;99013.19;7315642;19;129899;-38
2022/10/01 02:10:48;;;;;;;;;;;;;;;21.62;65.04;99004.03;7317413;19;129228;-36
2022/10/01 02:13:32;;;;;;;;;;;;;;;21.61;64.99;99005.03;7314760;19;129173;-37
2022/10/01 02:16:00;;;;;;;;;;;;;;;21.62;65.18;99004.03;7317000;19;131971;-39
2022/10/01 02:18:43;;;;;;;;;;;;;;;21.60;64.89;99003.38;7315518;19;131194;-36
2022/10/01 02:21:12;;;;;;;;;;;;;;;21.59;64.81;98999.13;7316860;19;129942;-39
2022/10/01 02:23:41;;;;;;;;;;;;;;;21.60;65.53;98999.94;7314947;19;128966;-37
2022/10/01 02:26:09;;;;;;;;;;;;;;;21.60;65.35;98995.50;7315555;19;129584;-40
2022/10/01 02:28:37;;;;;;;;;;;;;;;21.62;65.31;99001.41;7315881;19;130399;-38
2022/10/01 02:31:03;;;;;;;;;;;;;;;21.59;64.90;98993.06;7315831;19;129263;-39
2022/10/01 02:33:29;;;;;;;;;;;;;;;21.59;64.88;98996.50;7313970;19;128805;-39
2022/10/01 02:35:57;;;;;;;;;;;;;;;21.62;65.20;98997.97;7317870;19;129546;-39
2022/10/01 02:38:23;;;;;;;;;;;;;;;21.58;64.91;99000.09;7316292;19;130381;-41
2022/10/01 02:40:51;;;;;;;;;;;;;;;21.60;65.45;98994.72;7317465;19;129191;-40
2022/10/01 02:43:23;;;;;;;;;;;;;;;21.60;65.01;98990.28;7312804;19;129311;-39
2022/10/01 02:45:54;;;;;;;;;;;;;;;21.51;65.34;98967.69;7316280;19;129682;-39
2022/10/01 02:48:19;;;;;;;;;;;;;;;21.62;65.01;98983.09;7315735;19;130973;-38
2022/10/01 02:50:52;;;;;;;;;;;;;;;21.62;65.24;98985.72;7317559;19;130461;-38
2022/10/01 02:53:23;;;;;;;;;;;;;;;21.59;64.72;98980.81;7313858;19;129035;-40
2022/10/01 02:55:49;;;;;;;;;;;;;;;21.62;65.31;98980.50;7316201;19;129456;-40
2022/10/01 02:58:17;;;;;;;;;;;;;;;21.59;64.91;98978.19;7315029;19;129366;-38
2022/10/01 03:00:42;;;;;;;;;;;;;;;21.64;64.81;98980.34;7316349;19;129112;-38
2022/10/01 03:03:07;;;;;;;;;;;;;;;21.63;64.70;98971.69;7314096;19;129765;-38
2022/10/01 03:05:32;;;;;;;;;;;;;;;21.60;65.52;98971.97;7316135;19;129103;-38
2022/10/01 03:07:58;;;;;;;;;;;;;;;21.62;65.46;98972.66;7313865;19;130264;-38
2022/10/01 03:10:23;;;;;;;;;;;;;;;21.64;64.59;98975.94;7315878;19;129356;-39
2022/10/01 03:12:49;;;;;;;;;;;;;;;21.61;65.06;98975.41;7310512;19;129687;-37
2022/10/01 03:15:17;;;;;;;;;;;;;;;21.62;65.11;98977.88;7315108;19;130171;-38
2022/10/01 03:17:42;;;;;;;;;;;;;;;21.61;64.97;98972.81;7312879;19;132170;-40
2022/10/01 03:20:08;;;;;;;;;;;;;;;21.53;64.72;98955.28;7309035;19;129187;-39
2022/10/01 03:22:33;;;;;;;;;;;;;;;21.58;65.34;98975.72;7314783;19;131340;-40
2022/10/01 03:24:58;;;;;;;;;;;;;;;21.58;65.17;98970.50;7312199;19;130892;-40
2022/10/01 03:27:23;;;;;;;;;;;;;;;21.61;65.17;98971.00;7315888;19;130046;-39
2022/10/01 03:29:49;;;;;;;;;;;;;;;21.64;65.36;98970.69;7314752;19;129774;-39
2022/10/01 03:32:14;;;;;;;;;;;;;;;21.52;65.43;98955.41;7315005;19;128874;-40
2022/10/01 03:34:40;;;;;;;;;;;;;;;21.60;65.27;98964.13;7314466;19;129542;-39
2022/10/01 03:37:05;;;;;;;;;;;;;;;21.58;64.87;98971.34;7316226;19;130369;-39
2022/10/01 03:39:31;;;;;;;;;;;;;;;21.60;64.94;98969.34;7312450;19;129964;-39
2022/10/01 03:41:56;;;;;;;;;;;;;;;21.60;65.05;98968.56;7313690;19;128934;-40
2022/10/01 03:44:21;;;;;;;;;;;;;;;21.57;65.35;98968.84;7312537;19;130164;-37
2022/10/01 03:46:46;;;;;;;;;;;;;;;21.59;65.42;98972.97;7314513;19;129412;-38
2022/10/01 03:49:12;;;;;;;;;;;;;;;21.56;64.89;98972.44;7312299;19;129002;-38
2022/10/01 03:51:37;;;;;;;;;;;;;;;21.59;64.98;98972.97;7313090;19;128779;-38
2022/10/01 03:54:03;;;;;;;;;;;;;;;21.61;65.59;98984.09;7313316;19;129824;-38
2022/10/01 03:56:28;;;;;;;;;;;;;;;21.63;64.85;98974.31;7312452;19;130263;-38
2022/10/01 03:58:53;;;;;;;;;;;;;;;21.62;64.91;98970.03;7315183;19;129418;-40
2022/10/01 04:01:19;;;;;;;;;;;;;;;21.62;64.94;98967.41;7312520;19;129675;-39
2022/10/01 04:03:44;;;;;;;;;;;;;;;21.61;65.49;98976.25;7312686;19;129153;-39
2022/10/01 04:06:09;;;;;;;;;;;;;;;21.61;64.77;98971.00;7312979;19;130652;-41
2022/10/01 04:08:35;;;;;;;;;;;;;;;21.61;65.41;98964.94;7312638;19;129146;-39
2022/10/01 04:11:00;;;;;;;;;;;;;;;21.63;65.25;98963.84;7312699;19;129090;-36
2022/10/01 04:13:26;;;;;;;;;;;;;;;21.63;65.04;98948.16;7313204;19;130844;-40
2022/10/01 04:15:51;;;;;;;;;;;;;;;21.62;65.15;98946.47;7314126;19;129258;-39
2022/10/01 04:18:19;;;;;;;;;;;;;;;21.49;65.38;98919.94;7315042;19;130158;-40
2022/10/01 04:20:44;;;;;;;;;;;;;;;21.61;64.89;98934.41;7313419;19;129086;-37
2022/10/01 04:23:09;;;;;;;;;;;;;;;21.59;64.93;98936.34;7311695;19;130121;-40
2022/10/01 04:25:35;;;;;;;;;;;;;;;21.59;65.48;98931.09;7313318;19;129732;-40
2022/10/01 04:28:01;;;;;;;;;;;;;;;21.60;64.93;98927.50;7312885;19;130441;-38
2022/10/01 04:30:27;;;;;;;;;;;;;;;21.59;64.96;98931.09;7314051;19;129508;-39
2022/10/01 04:32:52;;;;;;;;;;;;;;;21.58;65.09;98934.72;7313125;19;132252;-41
2022/10/01 04:35:18;;;;;;;;;;;;;;;21.61;65.37;98929.16;7310543;19;129334;-39
2022/10/01 04:37:43;;;;;;;;;;;;;;;21.60;65.36;98932.72;7314316;19;129170;-38
2022/10/01 04:40:09;;;;;;;;;;;;;;;21.59;64.67;98933.72;7312692;19;129305;-40
2022/10/01 04:42:37;;;;;;;;;;;;;;;21.62;65.14;98936.03;7312732;19;130146;-40
2022/10/01 04:45:02;;;;;;;;;;;;;;;21.64;65.22;98938.47;7312158;19;129646;-40
2022/10/01 04:47:28;;;;;;;;;;;;;;;21.62;64.70;98932.56;7313852;19;129391;-38
2022/10/01 04:49:53;;;;;;;;;;;;;;;21.62;65.29;98936.03;7309650;19;129336;-38
2022/10/01 04:52:18;;;;;;;;;;;;;;;21.65;64.88;98940.94;7312928;19;129296;-39
2022/10/01 04:54:43;;;;;;;;;;;;;;;21.60;64.84;98932.72;7312060;19;129548;-39
2022/10/01 04:57:08;;;;;;;;;;;;;;;21.60;64.63;98927.50;7305995;19;129333;-39
2022/10/01 04:59:34;;;;;;;;;;;;;;;21.57;65.38;98922.59;7312783;19;129162;-37
2022/10/01 05:01:59;;;;;;;;;;;;;;;21.59;65.25;98927.66;7306397;19;129393;-39
2022/10/01 05:04:26;;;;;;;;;;;;;;;21.63;64.95;98927.22;7303660;19;130293;-39
2022/10/01 05:06:51;;;;;;;;;;;;;;;21.62;65.08;98929.97;7307093;19;129288;-39
2022/10/01 05:09:16;;;;;;;;;;;;;;;21.61;64.88;98925.72;7305809;19;129149;-36
2022/10/01 05:11:41;;;;;;;;;;;;;;;21.53;65.19;98910.81;7305286;19;129958;-39
2022/10/01 05:14:07;;;;;;;;;;;;;;;21.62;65.39;98922.13;7305762;19;129902;-38
2022/10/01 05:16:32;;;;;;;;;;;;;;;21.64;64.92;98921.00;7308486;19;129444;-38
2022/10/01 05:18:57;;;;;;;;;;;;;;;21.59;65.14;98925.03;7309718;19;129118;-39
2022/10/01 05:21:23;;;;;;;;;;;;;;;21.65;65.07;98930.47;7305659;19;130811;-38
2022/10/01 05:23:48;;;;;;;;;;;;;;;21.62;65.32;98924.72;7302472;19;132418;-38
2022/10/01 05:26:13;;;;;;;;;;;;;;;21.55;64.92;98913.28;7306788;19;129932;-39
2022/10/01 05:28:43;;;;;;;;;;;;;;;21.65;65.04;98927.06;7306235;19;130594;-36
2022/10/01 05:31:09;;;;;;;;;;;;;;;21.64;64.69;98931.47;7306960;19;130386;-39
2022/10/01 05:33:34;;;;;;;;;;;;;;;21.61;65.05;98931.78;7304411;19;129798;-39
2022/10/01 05:36:00;;;;;;;;;;;;;;;21.60;65.49;98922.28;7302660;19;129131;-39
2022/10/01 05:38:25;;;;;;;;;;;;;;;21.49;64.65;98899.00;7309137;19;130659;-39
2022/10/01 05:40:50;;;;;;;;;;;;;;;21.63;65.48;98916.75;7304733;19;131834;-41
2022/10/01 05:43:17;;;;;;;;;;;;;;;21.59;65.01;98915.41;7302001;19;130256;-36
2022/10/01 05:45:43;;;;;;;;;;;;;;;21.64;65.29;98909.72;7308863;19;130440;-38
2022/10/01 05:48:08;;;;;;;;;;;;;;;21.60;65.48;98911.00;7309207;19;131158;-38
2022/10/01 05:50:35;;;;;;;;;;;;;;;21.51;64.95;98888.41;7310282;19;129237;-40
2022/10/01 05:53:01;;;;;;;;;;;;;;;21.62;65.26;98903.81;7307476;19;129302;-37
2022/10/01 05:55:30;;;;;;;;;;;;;;;21.61;65.48;98910.84;7308963;19;129932;-39
2022/10/01 05:57:56;;;;;;;;;;;;;;;21.59;65.06;98904.94;7311966;19;129669;-40
2022/10/01 06:00:21;;;;;;;;;;;;;;;21.59;65.36;98899.72;7307791;19;130128;-39
2022/10/01 06:02:53;;;;;;;;;;;;;;;21.61;65.19;98896.94;7315325;19;131166;-39
2022/10/01 06:05:19;;;;;;;;;;;;;;;21.60;64.65;98896.13;7317598;19;128925;-39
2022/10/01 06:07:44;;;;;;;;;;;;;;;21.50;64.88;98879.72;7312546;19;129379;-38
2022/10/01 06:10:10;;;;;;;;;;;;;;;21.61;65.60;98891.72;7312755;19;130181;-40
2022/10/01 06:12:35;;;;;;;;;;;;;;;21.59;64.73;98894.50;7316391;19;130444;-40
2022/10/01 06:15:00;;;;;;;;;;;;;;;21.62;65.32;98886.31;7309552;19;130168;-36
2022/10/01 06:17:26;;;;;;;;;;;;;;;21.63;65.19;98887.97;7314882;19;129374;-40
2022/10/01 06:19:51;;;;;;;;;;;;;;;21.63;64.92;98885.38;7315432;19;129684;-38
2022/10/01 06:22:16;;;;;;;;;;;;;;;21.59;64.99;98867.50;7315146;19;130362;-38
2022/10/01 06:24:42;;;;;;;;;;;;;;;21.54;65.21;98854.06;7315910;19;130332;-38
2022/10/01 06:27:07;;;;;;;;;;;;;;;21.60;65.23;98871.78;7309455;19;129243;-37
2022/10/01 06:29:33;;;;;;;;;;;;;;;21.61;65.43;98874.22;7308952;19;130725;-38
2022/10/01 06:31:58;;;;;;;;;;;;;;;21.59;65.06;98860.47;7307979;19;129619;-39
2022/10/01 06:34:25;;;;;;;;;;;;;;;21.63;65.18;98856.59;7306478;19;129351;-36
2022/10/01 06:36:50;;;;;;;;;;;;;;;21.60;65.02;98859.50;7308614;19;131436;-40
2022/10/01 06:39:15;;;;;;;;;;;;;;;21.59;65.02;98863.09;7309631;19;130109;-38
2022/10/01 06:41:42;;;;;;;;;;;;;;;21.60;65.26;98859.50;7315623;19;129700;-40
2022/10/01 06:44:08;;;;;;;;;;;;;;;21.59;65.67;98863.09;7314858;19;129537;-38
2022/10/01 06:46:33;;;;;;;;;;;;;;;21.57;65.10;98859.81;7317166;19;129474;-40
2022/10/01 06:48:58;;;;;;;;;;;;;;;21.63;65.49;98858.38;7313924;19;130727;-39
2022/10/01 06:52:47;;;;;;;;;;;;;;;21.60;64.89;98864.72;7313337;19;129475;-39
2022/10/01 06:54:09;;;;;;;;;;;;;;;21.58;65.20;98851.00;7315156;19;129148;-38
2022/10/01 06:56:35;;;;;;;;;;;;;;;21.60;65.02;98849.03;7308411;19;130216;-38
2022/10/01 06:59:00;;;;;;;;;;;;;;;21.52;64.87;98822.84;7316013;19;129394;-39
2022/10/01 07:01:26;;;;;;;;;;;;;;;21.58;65.22;98837.09;7313720;19;130123;-38
2022/10/01 07:03:53;;;;;;;;;;;;;;;21.59;64.90;98823.88;7313323;19;129085;-39
2022/10/01 07:06:18;;;;;;;;;;;;;;;21.61;64.90;98829.75;7314301;19;129977;-39
2022/10/01 07:08:43;;;;;;;;;;;;;;;21.59;65.34;98826.47;7313910;19;129486;-39
2022/10/01 07:11:08;;;;;;;;;;;;;;;21.59;64.89;98821.25;7314603;19;130485;-39
2022/10/01 07:13:34;;;;;;;;;;;;;;;21.62;65.54;98815.69;7311588;19;129585;-38
2022/10/01 07:16:01;;;;;;;;;;;;;;;21.60;65.42;98809.78;7314674;19;129207;-40
2022/10/01 07:18:26;;;;;;;;;;;;;;;21.59;65.53;98815.19;7313577;19;131494;-38
2022/10/01 07:20:51;;;;;;;;;;;;;;;21.63;65.14;98812.13;7305806;19;130948;-40
2022/10/01 07:23:16;;;;;;;;;;;;;;;21.58;64.96;98814.38;7306806;19;129188;-38
2022/10/01 07:25:42;;;;;;;;;;;;;;;21.50;65.53;98785.56;7306820;19;130722;-41
2022/10/01 07:28:14;;;;;;;;;;;;;;;21.59;64.78;98800.31;7313913;19;130310;-40
2022/10/01 07:30:40;;;;;;;;;;;;;;;21.63;65.35;98801.66;7314276;19;129321;-39
2022/10/01 07:33:05;;;;;;;;;;;;;;;21.60;65.50;98796.72;7312691;19;129450;-37
2022/10/01 07:35:30;;;;;;;;;;;;;;;21.60;64.79;98807.19;7313492;19;129522;-40
2022/10/01 07:37:56;;;;;;;;;;;;;;;21.57;65.42;98801.44;7311871;19;129991;-39
2022/10/01 07:40:21;;;;;;;;;;;;;;;21.61;65.07;98797.53;7309943;19;130471;-39
2022/10/01 07:42:53;;;;;;;;;;;;;;;21.62;65.48;98804.41;7311112;19;129341;-38
2022/10/01 07:45:20;;;;;;;;;;;;;;;21.60;65.40;98796.72;7314758;19;129679;-39
2022/10/01 07:47:56;;;;;;;;;;;;;;;21.56;65.45;98799.81;7314688;19;129466;-39
2022/10/01 07:50:21;;;;;;;;;;;;;;;21.59;65.40;98797.72;7311953;19;129774;-39
2022/10/01 07:52:54;;;;;;;;;;;;;;;21.58;65.17;98796.09;7312579;19;130280;-37
2022/10/01 07:55:20;;;;;;;;;;;;;;;21.50;65.20;98774.31;7314500;19;129762;-39
2022/10/01 07:57:50;;;;;;;;;;;;;;;21.58;65.08;98793.47;7312065;19;130828;-39
2022/10/01 08:00:15;;;;;;;;;;;;;;;21.62;65.05;98788.72;7312990;19;129502;-39
2022/10/01 08:02:45;;;;;;;;;;;;;;;21.61;65.03;98781.84;7312111;19;129646;-39
2022/10/01 08:05:16;;;;;;;;;;;;;;;21.59;65.34;98782.00;7314185;19;128812;-38
2022/10/01 08:07:41;;;;;;;;;;;;;;;21.58;65.12;98780.38;7311391;19;129415;-39
2022/10/01 08:10:06;;;;;;;;;;;;;;;21.48;65.62;98761.41;7311573;19;129515;-39
2022/10/01 08:12:32;;;;;;;;;;;;;;;21.58;64.75;98775.16;7311301;19;130480;-38
2022/10/01 08:14:57;;;;;;;;;;;;;;;21.54;65.37;98768.59;7315021;19;129681;-39
2022/10/01 08:17:22;;;;;;;;;;;;;;;21.58;65.20;98762.09;7311959;19;130231;-37
2022/10/01 08:19:47;;;;;;;;;;;;;;;21.49;64.77;98752.56;7313803;19;129291;-38
2022/10/01 08:22:12;;;;;;;;;;;;;;;21.58;65.50;98762.09;7313773;19;129086;-39
2022/10/01 08:24:38;;;;;;;;;;;;;;;21.64;64.94;98771.91;7308489;19;130590;-37
2022/10/01 08:27:04;;;;;;;;;;;;;;;21.61;64.86;98769.59;7313845;19;129775;-40
2022/10/01 08:29:30;;;;;;;;;;;;;;;21.59;64.63;98761.09;7310072;19;131547;-40
2022/10/01 08:31:57;;;;;;;;;;;;;;;21.57;65.39;98755.19;7313305;19;129071;-39
2022/10/01 08:34:22;;;;;;;;;;;;;;;21.59;65.46;98755.84;7311275;19;129410;-38
2022/10/01 08:36:50;;;;;;;;;;;;;;;21.58;64.79;98756.84;7313400;19;129680;-39
2022/10/01 08:39:16;;;;;;;;;;;;;;;21.59;64.76;98758.47;7312571;19;130715;-40
2022/10/01 08:41:50;;;;;;;;;;;;;;;21.50;64.91;98727.22;7308872;19;129215;-39
2022/10/01 08:44:20;;;;;;;;;;;;;;;21.56;65.05;98750.13;7311284;19;128971;-39
2022/10/01 08:46:46;;;;;;;;;;;;;;;21.59;64.82;98742.78;7312348;19;131038;-39
2022/10/01 08:49:19;;;;;;;;;;;;;;;21.59;64.96;98737.53;7308337;19;132057;-39
2022/10/01 08:51:51;;;;;;;;;;;;;;;21.58;64.59;98729.88;7311317;19;129201;-36
2022/10/01 08:54:28;;;;;;;;;;;;;;;21.60;64.64;98736.56;7310097;19;129348;-40
2022/10/01 08:56:55;;;;;;;;;;;;;;;21.58;64.93;98722.84;7313708;19;129017;-38
2022/10/01 08:59:20;;;;;;;;;;;;;;;21.59;64.91;98724.47;7312106;19;130035;-40
2022/10/01 09:01:47;;;;;;;;;;;;;;;21.59;65.18;98726.25;7311441;19;130017;-41
2022/10/01 09:04:12;;;;;;;;;;;;;;;21.58;65.53;98715.00;7306254;19;130149;-41
2022/10/01 09:06:37;;;;;;;;;;;;;;;21.58;64.74;98717.63;7313061;19;130036;-38
2022/10/01 09:09:09;;;;;;;;;;;;;;;21.59;65.17;98711.38;7310378;19;129671;-38
2022/10/01 09:11:41;;;;;;;;;;;;;;;21.59;65.32;98706.16;7310519;19;129575;-39
2022/10/01 09:14:12;;;;;;;;;;;;;;;21.58;65.49;98703.72;7310799;19;129021;-40
2022/10/01 09:16:58;;;;;;;;;;;;;;;21.59;65.36;98700.94;7312251;19;129455;-38
2022/10/01 09:19:33;;;;;;;;;;;;;;;21.59;65.58;98700.94;7308121;19;130289;-40
2022/10/01 09:22:02;;;;;;;;;;;;;;;21.62;65.35;98694.53;7310991;19;129689;-39
2022/10/01 09:24:42;;;;;;;;;;;;;;;21.63;64.96;98693.59;7309334;19;130114;-39
2022/10/01 09:27:13;;;;;;;;;;;;;;;21.61;65.14;98693.75;7311175;19;130092;-39
2022/10/01 09:29:41;;;;;;;;;;;;;;;21.61;64.88;98693.75;7307171;19;129697;-39
2022/10/01 09:32:14;;;;;;;;;;;;;;;21.60;65.51;98692.09;7307230;19;129312;-39
2022/10/01 09:34:41;;;;;;;;;;;;;;;21.59;65.01;98682.63;7306321;19;130411;-39
2022/10/01 09:37:29;;;;;;;;;;;;;;;21.58;65.09;98683.63;7311313;19;129171;-37
2022/10/01 09:40:14;;;;;;;;;;;;;;;21.51;65.46;98663.47;7314658;19;129497;-36
2022/10/01 09:42:39;;;;;;;;;;;;;;;21.57;65.03;98671.50;7316156;19;129008;-39
2022/10/01 09:45:05;;;;;;;;;;;;;;;21.61;64.98;98672.81;7317783;19;128946;-40
2022/10/01 09:47:31;;;;;;;;;;;;;;;21.58;64.95;98667.09;7317994;19;129957;-37
2022/10/01 09:49:58;;;;;;;;;;;;;;;21.47;65.53;98634.22;7315938;19;130377;-39
2022/10/01 09:52:32;;;;;;;;;;;;;;;21.58;65.38;98652.22;7319779;19;129150;-40
2022/10/01 09:55:16;;;;;;;;;;;;;;;21.56;65.04;98642.88;7319425;19;129120;-40
2022/10/01 09:57:48;;;;;;;;;;;;;;;21.56;64.69;98643.72;7318644;19;129306;-42
2022/10/01 10:00:16;;;;;;;;;;;;;;;21.55;65.16;98626.38;7316506;19;131967;-38
2022/10/01 10:02:46;;;;;;;;;;;;;;;21.58;65.32;98631.31;7317963;19;128920;-39
2022/10/01 10:05:19;;;;;;;;;;;;;;;21.58;65.07;98633.91;7318078;19;128952;-39
2022/10/01 10:07:46;;;;;;;;;;;;;;;21.42;65.05;98610.34;7318070;19;130335;-39
2022/10/01 10:10:26;;;;;;;;;;;;;;;21.48;64.78;98630.63;7315739;19;130265;-38
2022/10/01 10:13:09;;;;;;;;;;;;;;;21.58;65.36;98631.31;7316017;19;128976;-38
2022/10/01 10:15:40;;;;;;;;;;;;;;;21.58;64.85;98625.25;7318810;19;129411;-39
2022/10/01 10:18:07;;;;;;;;;;;;;;;21.59;64.97;98619.84;7318339;19;131258;-38
2022/10/01 10:20:38;;;;;;;;;;;;;;;21.55;65.25;98615.91;7316703;19;130333;-41
2022/10/01 10:23:06;;;;;;;;;;;;;;;21.60;65.01;98611.00;7316830;19;129118;-39
2022/10/01 10:25:31;;;;;;;;;;;;;;;21.59;65.07;98609.38;7318574;19;128852;-39
2022/10/01 10:27:58;;;;;;;;;;;;;;;21.58;64.83;98615.59;7317947;19;130908;-39
2022/10/01 10:30:25;;;;;;;;;;;;;;;21.60;64.68;98616.25;7315387;19;130379;-39
2022/10/01 10:32:50;;;;;;;;;;;;;;;21.56;64.93;98617.56;7317187;19;129004;-39
2022/10/01 10:35:24;;;;;;;;;;;;;;;21.57;65.14;98613.97;7318216;19;128881;-39
2022/10/01 10:37:51;;;;;;;;;;;;;;;21.53;65.46;98622.28;7317530;19;130209;-39
2022/10/01 10:40:18;;;;;;;;;;;;;;;21.54;65.11;98606.44;7315654;19;129499;-38
2022/10/01 10:42:49;;;;;;;;;;;;;;;21.55;64.58;98615.91;7316562;19;128957;-38
2022/10/01 10:45:16;;;;;;;;;;;;;;;21.57;65.02;98607.91;7314994;19;129218;-40
2022/10/01 10:47:51;;;;;;;;;;;;;;;21.59;64.96;98612.00;7316776;19;130813;-38
2022/10/01 10:50:28;;;;;;;;;;;;;;;21.56;64.65;98607.09;7314333;19;131252;-38
2022/10/01 10:52:54;;;;;;;;;;;;;;;21.56;64.68;98611.50;7315197;19;128933;-39
2022/10/01 10:55:25;;;;;;;;;;;;;;;21.47;64.89;98602.84;7316536;19;129631;-38
2022/10/01 10:57:51;;;;;;;;;;;;;;;21.55;65.17;98613.28;7312326;19;129304;-38
2022/10/01 11:00:24;;;;;;;;;;;;;;;21.58;64.90;98610.38;7314572;19;130295;-37
2022/10/01 11:02:58;;;;;;;;;;;;;;;21.58;65.20;98610.38;7313766;19;129586;-39
2022/10/01 11:05:26;;;;;;;;;;;;;;;21.56;64.69;98607.09;7316407;19;129656;-40
2022/10/01 11:07:56;;;;;;;;;;;;;;;21.57;65.37;98607.91;7314968;19;130689;-40
2022/10/01 11:10:24;;;;;;;;;;;;;;;21.54;64.85;98598.59;7311446;19;130189;-39
2022/10/01 11:12:56;;;;;;;;;;;;;;;21.56;65.11;98601.88;7314879;19;129438;-40
2022/10/01 11:15:37;;;;;;;;;;;;;;;21.58;64.87;98599.91;7315477;19;128896;-38
2022/10/01 11:18:20;;;;;;;;;;;;;;;21.55;65.20;98595.00;7315553;19;129834;-39
2022/10/01 11:20:49;;;;;;;;;;;;;;;21.57;64.87;98593.03;7314298;19;130680;-39
2022/10/01 11:23:40;;;;;;;;;;;;;;;21.56;65.50;98596.63;7313762;19;130571;-41
2022/10/01 11:26:09;;;;;;;;;;;;;;;21.58;65.02;98586.84;7313230;19;129158;-38
2022/10/01 11:28:38;;;;;;;;;;;;;;;21.59;65.26;98591.06;7315309;19;130614;-40
2022/10/01 11:31:14;;;;;;;;;;;;;;;21.57;65.29;98593.03;7315118;19;130349;-39
2022/10/01 11:33:43;;;;;;;;;;;;;;;21.57;64.76;98593.03;7309782;19;129179;-41
2022/10/01 11:36:20;;;;;;;;;;;;;;;21.58;65.30;98594.69;7312000;19;129308;-38
2022/10/01 11:38:45;;;;;;;;;;;;;;;21.56;65.49;98594.03;7314724;19;130746;-39
2022/10/01 11:41:10;;;;;;;;;;;;;;;21.57;65.11;98598.25;7314909;19;129692;-40
2022/10/01 11:43:38;;;;;;;;;;;;;;;21.59;65.30;98595.47;7313286;19;128936;-39
2022/10/01 11:46:07;;;;;;;;;;;;;;;21.55;64.63;98595.00;7315506;19;129035;-39
2022/10/01 11:48:43;;;;;;;;;;;;;;;21.60;64.76;98604.97;7316556;19;130131;-38
2022/10/01 11:51:14;;;;;;;;;;;;;;;21.57;65.10;98598.25;7315678;19;129269;-39
2022/10/01 11:53:44;;;;;;;;;;;;;;;21.57;64.70;98608.72;7313340;19;129285;-39
2022/10/01 11:59:21;;;;;;;;;;;;;;;21.56;65.03;98603.66;7314396;19;129080;-40
2022/10/01 12:01:57;;;;;;;;;;;;;;;21.55;65.09;98618.53;7314796;19;129534;-40
2022/10/01 12:04:44;;;;;;;;;;;;;;;21.55;65.40;98615.91;7313709;19;129301;-39
2022/10/01 12:07:19;;;;;;;;;;;;;;;21.54;65.37;98603.00;7314577;19;128787;-39
2022/10/01 12:09:53;;;;;;;;;;;;;;;21.56;65.04;98601.88;7313371;19;129744;-39
2022/10/01 12:12:22;;;;;;;;;;;;;;;21.57;65.25;98608.72;7313837;19;130866;-37
2022/10/01 12:14:52;;;;;;;;;;;;;;;21.57;64.75;98598.25;7315835;19;129049;-40
2022/10/01 12:17:21;;;;;;;;;;;;;;;21.48;64.92;98583.56;7314702;19;129185;-38
2022/10/01 12:19:49;;;;;;;;;;;;;;;21.56;65.15;98595.81;7314099;19;129235;-39
2022/10/01 12:22:21;;;;;;;;;;;;;;;21.58;65.40;98601.69;7313173;19;129294;-39
2022/10/01 12:24:47;;;;;;;;;;;;;;;21.58;65.51;98599.91;7316105;19;129078;-38
2022/10/01 12:27:31;;;;;;;;;;;;;;;21.54;65.35;98595.16;7315251;19;128862;-41
2022/10/01 12:30:15;;;;;;;;;;;;;;;21.56;64.52;98591.41;7313529;19;130369;-39
2022/10/01 12:32:50;;;;;;;;;;;;;;;21.56;65.27;98586.19;7314037;19;129256;-40
2022/10/01 12:35:25;;;;;;;;;;;;;;;21.60;65.29;98582.25;7313820;19;129433;-39
2022/10/01 12:38:10;;;;;;;;;;;;;;;21.53;65.08;98583.91;7313686;19;129186;-40
2022/10/01 12:41:01;;;;;;;;;;;;;;;21.56;65.10;98583.56;7311784;19;130206;-40
2022/10/01 12:43:35;;;;;;;;;;;;;;;21.55;65.05;98581.91;7309238;19;129850;-39
2022/10/01 12:46:10;;;;;;;;;;;;;;;21.56;64.86;98578.34;7311885;19;129020;-39